createdAt,value
2023-01-27T00:01:28.279Z,1.70
2023-01-27T00:03:59.362Z,1.70
2023-01-27T00:06:28.726Z,1.70
2023-01-27T00:08:58.135Z,1.70
2023-01-27T00:11:44.873Z,1.70
2023-01-27T00:14:14.311Z,1.60
2023-01-27T00:16:44.038Z,1.60
2023-01-27T00:19:14.759Z,1.50
2023-01-27T00:22:01.243Z,1.50
2023-01-27T00:24:39.478Z,1.50
2023-01-27T00:27:10.289Z,1.50
2023-01-27T00:29:41.621Z,1.50
2023-01-27T00:32:29.490Z,1.60
2023-01-27T00:35:00.178Z,1.60
2023-01-27T00:37:29.559Z,1.40
2023-01-27T00:39:58.919Z,1.50
2023-01-27T00:42:28.204Z,1.60
2023-01-27T00:45:14.842Z,1.50
2023-01-27T00:47:44.103Z,1.40
2023-01-27T00:50:15.133Z,1.40
2023-01-27T00:52:44.582Z,1.40
2023-01-27T00:55:16.159Z,1.30
2023-01-27T00:57:46.172Z,1.30
2023-01-27T01:00:17.153Z,1.30
2023-01-27T01:02:47.087Z,1.40
2023-01-27T01:05:18.183Z,1.50
2023-01-27T01:07:47.575Z,1.60
2023-01-27T01:10:17.684Z,1.60
2023-01-27T01:12:47.120Z,1.60
2023-01-27T01:15:16.783Z,1.60
2023-01-27T01:17:46.528Z,1.60
2023-01-27T01:20:17.399Z,1.70
2023-01-27T01:22:46.685Z,1.80
2023-01-27T01:25:16.125Z,1.70
2023-01-27T01:27:47.071Z,1.70
2023-01-27T01:30:16.621Z,1.60
2023-01-27T01:32:46.000Z,1.70
2023-01-27T01:35:16.933Z,1.70
2023-01-27T01:37:46.284Z,1.70
2023-01-27T01:40:16.148Z,1.70
2023-01-27T01:42:55.338Z,1.70
2023-01-27T01:45:48.302Z,1.80
2023-01-27T01:48:23.073Z,1.70
2023-01-27T01:50:58.584Z,1.80
2023-01-27T01:53:34.167Z,1.80
2023-01-27T01:56:08.166Z,1.80
2023-01-27T01:58:38.230Z,1.70
2023-01-27T02:01:09.109Z,1.80
2023-01-27T02:03:40.442Z,1.80
2023-01-27T02:06:12.067Z,1.70
2023-01-27T02:08:44.006Z,1.60
2023-01-27T02:11:13.582Z,1.70
2023-01-27T02:13:43.627Z,1.70
2023-01-27T02:16:14.658Z,1.80
2023-01-27T02:18:45.081Z,1.80
2023-01-27T02:21:15.948Z,1.70
2023-01-27T02:23:58.909Z,1.60
2023-01-27T02:26:32.512Z,1.70
2023-01-27T02:29:05.088Z,1.70
2023-01-27T02:31:35.045Z,1.70
2023-01-27T02:34:07.679Z,1.70
2023-01-27T02:36:43.240Z,1.70
2023-01-27T02:39:16.132Z,1.70
2023-01-27T02:41:50.213Z,1.70
2023-01-27T02:44:19.793Z,1.70
2023-01-27T02:46:49.312Z,1.60
2023-01-27T02:49:18.513Z,1.70
2023-01-27T02:51:47.804Z,1.70
2023-01-27T02:54:17.128Z,1.70
2023-01-27T02:56:47.901Z,1.70
2023-01-27T02:59:18.968Z,1.80
2023-01-27T03:01:50.080Z,1.70
2023-01-27T03:04:19.401Z,1.70
2023-01-27T03:06:48.842Z,1.70
2023-01-27T03:09:18.290Z,1.70
2023-01-27T03:12:07.977Z,1.60
2023-01-27T03:14:54.474Z,1.60
2023-01-27T03:17:41.003Z,1.70
2023-01-27T03:20:11.867Z,1.70
2023-01-27T03:22:41.320Z,1.70
2023-01-27T03:25:12.807Z,1.70
2023-01-27T03:27:45.151Z,1.60
2023-01-27T03:30:26.668Z,1.60
2023-01-27T03:33:06.698Z,1.60
2023-01-27T03:36:16.679Z,1.60
2023-01-27T03:39:06.605Z,1.60
2023-01-27T03:41:53.272Z,1.60
2023-01-27T03:44:43.073Z,1.60
2023-01-27T03:47:12.453Z,1.50
2023-01-27T03:49:41.708Z,1.50
2023-01-27T03:52:11.158Z,1.60
2023-01-27T03:54:40.434Z,1.60
2023-01-27T03:57:10.295Z,1.60
2023-01-27T03:59:41.009Z,1.60
2023-01-27T04:02:27.943Z,1.60
2023-01-27T04:05:14.844Z,1.60
2023-01-27T04:07:44.373Z,1.60
2023-01-27T04:10:13.653Z,1.60
2023-01-27T04:12:41.852Z,1.50
2023-01-27T04:15:13.254Z,1.40
2023-01-27T04:17:42.945Z,1.40
2023-01-27T04:20:14.212Z,1.40
2023-01-27T04:22:43.490Z,1.50
2023-01-27T04:25:13.453Z,1.50
2023-01-27T04:27:43.592Z,1.60
2023-01-27T04:30:15.328Z,1.50
2023-01-27T04:32:44.838Z,1.60
2023-01-27T04:35:14.500Z,1.50
2023-01-27T04:37:44.394Z,1.50
2023-01-27T04:40:15.096Z,1.40
2023-01-27T04:42:44.307Z,1.50
2023-01-27T04:45:18.584Z,1.50
2023-01-27T04:47:47.867Z,1.50
2023-01-27T04:50:17.400Z,1.40
2023-01-27T04:52:47.303Z,1.50
2023-01-27T04:55:16.800Z,1.40
2023-01-27T04:57:45.993Z,1.40
2023-01-27T05:00:16.651Z,1.40
2023-01-27T05:02:48.285Z,1.40
2023-01-27T05:05:17.779Z,1.30
2023-01-27T05:07:46.981Z,1.30
2023-01-27T05:10:16.149Z,1.30
2023-01-27T05:12:45.532Z,1.30
2023-01-27T05:15:15.071Z,1.30
2023-01-27T05:17:44.333Z,1.30
2023-01-27T05:20:15.061Z,1.20
2023-01-27T05:22:44.268Z,1.20
2023-01-27T05:25:14.064Z,1.20
2023-01-27T05:27:43.552Z,1.30
2023-01-27T05:30:13.905Z,1.30
2023-01-27T05:32:43.067Z,1.30
2023-01-27T05:35:12.494Z,1.30
2023-01-27T05:37:43.848Z,1.30
2023-01-27T05:40:14.325Z,1.30
2023-01-27T05:42:43.485Z,1.30
2023-01-27T05:45:13.529Z,1.20
2023-01-27T05:47:43.447Z,1.20
2023-01-27T05:50:12.991Z,1.20
2023-01-27T05:52:43.659Z,1.30
2023-01-27T05:55:13.208Z,1.30
2023-01-27T05:57:42.605Z,1.20
2023-01-27T06:00:13.459Z,1.20
2023-01-27T06:02:42.820Z,1.20
2023-01-27T06:05:12.508Z,1.30
2023-01-27T06:07:44.425Z,1.20
2023-01-27T06:10:14.467Z,1.30
2023-01-27T06:12:43.696Z,1.20
2023-01-27T06:15:14.006Z,1.20
2023-01-27T06:17:43.448Z,1.10
2023-01-27T06:20:13.826Z,1.10
2023-01-27T06:22:44.551Z,1.00
2023-01-27T06:25:14.041Z,1.00
2023-01-27T06:27:44.400Z,0.90
2023-01-27T06:30:14.336Z,1.00
2023-01-27T06:32:43.569Z,0.90
2023-01-27T06:35:13.034Z,1.00
2023-01-27T06:37:44.225Z,1.00
2023-01-27T06:40:14.523Z,1.00
2023-01-27T06:42:44.907Z,1.00
2023-01-27T06:45:14.710Z,1.00
2023-01-27T06:47:44.192Z,1.00
2023-01-27T06:50:14.156Z,1.10
2023-01-27T06:52:45.106Z,1.10
2023-01-27T06:55:14.323Z,1.10
2023-01-27T06:57:44.706Z,1.10
2023-01-27T07:00:15.617Z,1.00
2023-01-27T07:02:45.742Z,1.00
2023-01-27T07:05:15.981Z,1.00
2023-01-27T07:07:46.693Z,1.00
2023-01-27T07:10:16.156Z,1.10
2023-01-27T07:12:45.882Z,1.20
2023-01-27T07:15:15.703Z,1.20
2023-01-27T07:17:44.957Z,1.10
2023-01-27T07:20:15.873Z,1.10
2023-01-27T07:22:46.839Z,1.20
2023-01-27T07:25:16.147Z,1.20
2023-01-27T07:27:45.343Z,1.20
2023-01-27T07:30:15.723Z,1.30
2023-01-27T07:32:44.952Z,1.40
2023-01-27T07:35:14.161Z,1.50
2023-01-27T07:37:43.628Z,1.50
2023-01-27T07:40:15.377Z,1.60
2023-01-27T07:42:45.040Z,1.70
2023-01-27T07:45:14.354Z,1.70
2023-01-27T07:47:43.652Z,1.80
2023-01-27T07:50:14.108Z,1.90
2023-01-27T07:52:43.488Z,2.00
2023-01-27T07:55:14.369Z,2.10
2023-01-27T07:57:43.938Z,2.20
2023-01-27T08:00:15.817Z,2.20
2023-01-27T08:02:45.074Z,2.40
2023-01-27T08:05:14.302Z,2.50
2023-01-27T08:07:43.622Z,2.50
2023-01-27T08:10:14.814Z,2.50
2023-01-27T08:12:45.342Z,2.70
2023-01-27T08:15:17.683Z,2.80
2023-01-27T08:17:55.841Z,2.90
2023-01-27T08:20:25.289Z,3.00
2023-01-27T08:22:54.831Z,3.10
2023-01-27T08:25:26.448Z,3.00
2023-01-27T08:27:57.588Z,3.00
2023-01-27T08:30:27.355Z,2.80
2023-01-27T08:32:57.056Z,2.70
2023-01-27T08:35:26.328Z,2.80
2023-01-27T08:37:55.457Z,2.80
2023-01-27T08:40:26.108Z,2.80
2023-01-27T08:42:55.564Z,2.80
2023-01-27T08:45:25.008Z,2.70
2023-01-27T08:47:54.296Z,2.70
2023-01-27T08:50:23.747Z,2.80
2023-01-27T08:52:53.120Z,2.80
2023-01-27T08:55:22.283Z,2.90
2023-01-27T08:57:52.861Z,2.90
2023-01-27T09:00:22.716Z,2.80
2023-01-27T09:02:52.338Z,2.80
2023-01-27T09:05:22.554Z,3.00
2023-01-27T09:07:51.963Z,3.00
2023-01-27T09:10:22.249Z,3.00
2023-01-27T09:12:53.112Z,3.00
2023-01-27T09:15:22.937Z,3.00
2023-01-27T09:17:52.366Z,2.90
2023-01-27T09:20:22.805Z,2.70
2023-01-27T09:22:52.075Z,2.60
2023-01-27T09:25:21.442Z,2.60
2023-01-27T09:27:50.673Z,2.60
2023-01-27T09:30:21.486Z,2.70
2023-01-27T09:32:51.104Z,2.80
2023-01-27T09:35:20.936Z,2.90
2023-01-27T09:37:53.746Z,3.10
2023-01-27T09:40:35.096Z,3.10
2023-01-27T09:43:21.475Z,3.20
2023-01-27T09:46:11.520Z,3.20
2023-01-27T09:48:59.586Z,3.30
2023-01-27T09:51:40.060Z,3.50
2023-01-27T09:54:25.408Z,3.80
2023-01-27T09:57:01.775Z,4.00
2023-01-27T09:59:48.759Z,4.10
2023-01-27T10:02:32.930Z,4.40
2023-01-27T10:05:20.824Z,4.50
2023-01-27T10:08:09.413Z,4.60
2023-01-27T10:10:49.586Z,4.50
2023-01-27T10:13:26.935Z,4.30
2023-01-27T10:16:13.745Z,4.20
2023-01-27T10:19:07.782Z,4.30
2023-01-27T10:21:47.751Z,4.30
2023-01-27T10:24:30.992Z,4.50
2023-01-27T10:27:08.806Z,4.40
2023-01-27T10:29:46.032Z,4.20
2023-01-27T10:32:26.963Z,4.20
2023-01-27T10:35:11.650Z,4.40
2023-01-27T10:37:54.201Z,4.20
2023-01-27T10:40:35.133Z,4.10
2023-01-27T10:43:11.094Z,3.90
2023-01-27T10:45:47.093Z,3.80
2023-01-27T10:48:35.042Z,3.70
2023-01-27T10:51:11.660Z,3.80
2023-01-27T10:53:51.618Z,3.80
2023-01-27T10:56:28.983Z,3.70
2023-01-27T10:59:05.211Z,3.70
2023-01-27T11:01:38.103Z,3.70
2023-01-27T11:04:13.966Z,3.80
2023-01-27T11:06:47.011Z,3.90
2023-01-27T11:09:25.780Z,3.70
2023-01-27T11:11:58.600Z,3.60
2023-01-27T11:14:30.410Z,3.50
2023-01-27T11:17:05.240Z,3.40
2023-01-27T11:19:45.872Z,3.30
2023-01-27T11:22:22.623Z,3.20
2023-01-27T11:24:59.124Z,3.10
2023-01-27T11:27:45.831Z,3.00
2023-01-27T11:30:21.235Z,3.00
2023-01-27T11:33:01.198Z,2.90
2023-01-27T11:35:30.529Z,3.00
2023-01-27T11:38:14.904Z,2.90
2023-01-27T11:40:47.156Z,2.90
2023-01-27T11:43:19.939Z,2.90
2023-01-27T11:45:51.658Z,2.90
2023-01-27T11:48:23.427Z,2.90
2023-01-27T11:50:52.916Z,2.90
2023-01-27T11:53:29.207Z,2.90
2023-01-27T11:56:01.968Z,2.90
2023-01-27T11:58:38.057Z,2.90
2023-01-27T12:01:15.929Z,2.90
2023-01-27T12:03:54.601Z,2.90
2023-01-27T12:06:32.900Z,3.00
2023-01-27T12:09:03.716Z,3.20
2023-01-27T12:11:33.894Z,3.20
2023-01-27T12:14:05.497Z,3.20
2023-01-27T12:16:45.854Z,3.10
2023-01-27T12:19:26.938Z,3.10
2023-01-27T12:22:01.598Z,3.10
2023-01-27T12:24:36.368Z,3.00
2023-01-27T12:27:07.109Z,3.00
2023-01-27T12:29:42.625Z,3.10
2023-01-27T12:32:18.222Z,3.20
2023-01-27T12:34:50.996Z,3.30
2023-01-27T12:37:25.414Z,3.20
2023-01-27T12:40:00.723Z,3.30
2023-01-27T12:42:42.849Z,3.20
2023-01-27T12:45:25.064Z,3.30
2023-01-27T12:48:04.144Z,3.20
2023-01-27T12:50:34.716Z,3.10
2023-01-27T12:53:07.487Z,3.10
2023-01-27T12:55:41.286Z,3.20
2023-01-27T12:58:33.566Z,3.10
2023-01-27T13:01:05.192Z,3.00
2023-01-27T13:03:42.779Z,2.80
2023-01-27T13:06:17.567Z,2.70
2023-01-27T13:08:47.838Z,2.70
2023-01-27T13:11:31.257Z,2.70
2023-01-27T13:14:00.969Z,2.60
2023-01-27T13:16:32.440Z,2.60
2023-01-27T13:19:03.017Z,2.50
2023-01-27T13:21:37.410Z,2.50
2023-01-27T13:24:13.677Z,2.50
2023-01-27T13:26:44.606Z,2.50
2023-01-27T13:29:18.458Z,2.40
2023-01-27T13:31:54.425Z,2.30
2023-01-27T13:34:29.955Z,2.30
2023-01-27T13:37:04.001Z,2.30
2023-01-27T13:39:48.532Z,2.40
2023-01-27T13:42:25.167Z,2.30
2023-01-27T13:45:00.679Z,2.40
2023-01-27T13:47:36.404Z,2.50
2023-01-27T13:50:17.656Z,2.50
2023-01-27T13:52:47.883Z,2.50
2023-01-27T13:55:17.652Z,2.40
2023-01-27T13:58:02.145Z,2.40
2023-01-27T14:00:39.747Z,2.30
2023-01-27T14:03:33.766Z,2.30
2023-01-27T14:06:25.064Z,2.30
2023-01-27T14:09:14.313Z,2.20
2023-01-27T14:11:49.488Z,2.30
2023-01-27T14:14:56.065Z,2.40
2023-01-27T14:17:38.695Z,2.30
2023-01-27T14:20:24.896Z,2.20
2023-01-27T14:23:06.588Z,2.20
2023-01-27T14:25:45.275Z,2.00
2023-01-27T14:28:24.387Z,2.00
2023-01-27T14:30:59.330Z,2.10
2023-01-27T14:33:51.666Z,2.00
2023-01-27T14:36:23.114Z,2.00
2023-01-27T14:39:04.059Z,2.00
2023-01-27T14:41:39.790Z,2.00
2023-01-27T14:44:18.263Z,2.00
2023-01-27T14:47:06.405Z,1.90
2023-01-27T14:49:56.391Z,1.80
2023-01-27T14:52:37.654Z,1.80
2023-01-27T14:55:28.700Z,1.80
2023-01-27T14:58:12.958Z,1.80
2023-01-27T15:00:53.671Z,1.80
2023-01-27T15:03:51.286Z,1.90
2023-01-27T15:06:29.871Z,1.80
2023-01-27T15:09:06.449Z,1.80
2023-01-27T15:11:53.382Z,1.80
2023-01-27T15:14:58.186Z,1.90
2023-01-27T15:17:37.791Z,1.90
2023-01-27T15:20:36.906Z,1.90
2023-01-27T15:23:25.749Z,1.80
2023-01-27T15:26:00.123Z,1.80
2023-01-27T15:28:33.613Z,1.90
2023-01-27T15:31:21.841Z,1.90
2023-01-27T15:33:54.050Z,1.80
2023-01-27T15:36:36.832Z,1.90
2023-01-27T15:39:35.648Z,1.80
2023-01-27T15:42:14.114Z,1.80
2023-01-27T15:45:00.361Z,1.80
2023-01-27T15:47:31.952Z,1.80
2023-01-27T15:50:19.942Z,1.80
2023-01-27T15:52:51.572Z,1.80
2023-01-27T15:55:27.160Z,1.80
2023-01-27T15:58:08.366Z,1.80
2023-01-27T16:00:39.917Z,1.90
2023-01-27T16:03:23.030Z,1.80
2023-01-27T16:05:56.762Z,1.80
2023-01-27T16:08:32.137Z,1.80
2023-01-27T16:11:23.539Z,1.80
2023-01-27T16:13:53.267Z,1.70
2023-01-27T16:16:36.456Z,1.70
2023-01-27T16:19:18.116Z,1.70
2023-01-27T16:21:51.048Z,1.80
2023-01-27T16:24:33.951Z,1.80
2023-01-27T16:27:08.970Z,1.80
2023-01-27T16:29:42.809Z,1.90
2023-01-27T16:32:18.710Z,1.80
2023-01-27T16:34:51.264Z,1.80
2023-01-27T16:37:25.628Z,1.80
2023-01-27T16:40:07.027Z,1.80
2023-01-27T16:42:39.480Z,1.70
2023-01-27T16:45:20.856Z,1.70
2023-01-27T16:47:54.651Z,1.70
2023-01-27T16:50:34.611Z,1.70
2023-01-27T16:53:06.241Z,1.70
2023-01-27T16:55:37.329Z,1.70
2023-01-27T16:58:08.031Z,1.70
2023-01-27T17:00:39.573Z,1.70
2023-01-27T17:03:17.579Z,1.70
2023-01-27T17:05:53.584Z,1.70
2023-01-27T17:08:26.058Z,1.70
2023-01-27T17:11:06.631Z,1.80
2023-01-27T17:13:44.315Z,1.80
2023-01-27T17:16:21.066Z,1.80
2023-01-27T17:18:53.222Z,1.80
2023-01-27T17:21:37.317Z,1.80
2023-01-27T17:24:18.341Z,1.80
2023-01-27T17:26:57.659Z,1.80
2023-01-27T17:29:35.123Z,1.80
2023-01-27T17:32:16.423Z,1.90
2023-01-27T17:34:46.642Z,1.90
2023-01-27T17:37:18.702Z,1.90
2023-01-27T17:39:53.257Z,1.70
2023-01-27T17:42:27.102Z,1.70
2023-01-27T17:44:57.751Z,1.60
2023-01-27T17:47:27.914Z,1.60
2023-01-27T17:49:58.155Z,1.60
2023-01-27T17:52:30.900Z,1.60
2023-01-27T17:55:02.781Z,1.60
2023-01-27T17:57:36.477Z,1.60
2023-01-27T18:00:11.886Z,1.60
2023-01-27T18:02:49.937Z,1.60
2023-01-27T18:05:24.507Z,1.60
2023-01-27T18:07:54.229Z,1.60
2023-01-27T18:10:27.199Z,1.60
2023-01-27T18:13:15.155Z,1.60
2023-01-27T18:15:50.064Z,1.60
2023-01-27T18:18:26.130Z,1.50
2023-01-27T18:21:17.354Z,1.50
2023-01-27T18:23:49.523Z,1.60
2023-01-27T18:26:24.150Z,1.50
2023-01-27T18:29:01.004Z,1.50
2023-01-27T18:31:34.849Z,1.50
2023-01-27T18:34:25.824Z,1.50
2023-01-27T18:36:58.984Z,1.50
2023-01-27T18:39:36.709Z,1.60
2023-01-27T18:42:15.484Z,1.60
2023-01-27T18:44:54.274Z,1.50
2023-01-27T18:47:30.319Z,1.50
2023-01-27T18:50:06.751Z,1.50
2023-01-27T18:52:37.820Z,1.50
2023-01-27T18:55:16.940Z,1.50
2023-01-27T18:57:49.293Z,1.50
2023-01-27T19:00:26.603Z,1.40
2023-01-27T19:03:03.413Z,1.40
2023-01-27T19:05:35.674Z,1.40
2023-01-27T19:08:06.912Z,1.40
2023-01-27T19:10:38.140Z,1.40
2023-01-27T19:13:09.490Z,1.40
2023-01-27T19:15:48.724Z,1.40
2023-01-27T19:18:26.317Z,1.40
2023-01-27T19:20:56.397Z,1.30
2023-01-27T19:23:27.307Z,1.30
2023-01-27T19:26:04.763Z,1.30
2023-01-27T19:28:38.239Z,1.30
2023-01-27T19:31:10.403Z,1.30
2023-01-27T19:33:44.389Z,1.40
2023-01-27T19:36:23.242Z,1.50
2023-01-27T19:39:01.467Z,1.40
2023-01-27T19:41:32.261Z,1.40
2023-01-27T19:44:05.624Z,1.40
2023-01-27T19:46:37.960Z,1.40
2023-01-27T19:49:08.818Z,1.50
2023-01-27T19:51:42.661Z,1.50
2023-01-27T19:54:13.798Z,1.50
2023-01-27T19:56:45.163Z,1.50
2023-01-27T19:59:16.609Z,1.50
2023-01-27T20:01:49.651Z,1.40
2023-01-27T20:04:21.331Z,1.50
2023-01-27T20:06:53.021Z,1.50
2023-01-27T20:09:24.415Z,1.50
2023-01-27T20:11:57.564Z,1.50
2023-01-27T20:14:28.851Z,1.50
2023-01-27T20:17:01.460Z,1.50
2023-01-27T20:19:33.133Z,1.50
2023-01-27T20:22:03.884Z,1.50
2023-01-27T20:24:35.004Z,1.50
2023-01-27T20:27:08.092Z,1.50
2023-01-27T20:29:41.109Z,1.50
2023-01-27T20:32:14.281Z,1.50
2023-01-27T20:34:45.152Z,1.60
2023-01-27T20:37:16.614Z,1.60
2023-01-27T20:39:50.313Z,1.60
2023-01-27T20:42:21.730Z,1.60
2023-01-27T20:44:52.431Z,1.60
2023-01-27T20:47:25.808Z,1.70
2023-01-27T20:50:00.567Z,1.60
2023-01-27T20:52:31.932Z,1.60
2023-01-27T20:55:03.359Z,1.50
2023-01-27T20:57:36.056Z,1.50
2023-01-27T21:00:07.531Z,1.60
2023-01-27T21:02:40.071Z,1.50
2023-01-27T21:05:11.541Z,1.50
2023-01-27T21:07:42.911Z,1.50
2023-01-27T21:10:13.879Z,1.50
2023-01-27T21:12:44.253Z,1.50
2023-01-27T21:15:15.820Z,1.50
2023-01-27T21:17:46.872Z,1.50
2023-01-27T21:20:16.748Z,1.50
2023-01-27T21:22:47.280Z,1.50
2023-01-27T21:25:18.346Z,1.50
2023-01-27T21:27:48.800Z,1.40
2023-01-27T21:30:20.189Z,1.40
2023-01-27T21:32:51.354Z,1.30
2023-01-27T21:35:22.455Z,1.30
2023-01-27T21:37:53.747Z,1.30
2023-01-27T21:40:23.354Z,1.30
2023-01-27T21:43:10.494Z,1.30
2023-01-27T21:45:40.432Z,1.30
2023-01-27T21:48:12.075Z,1.30
2023-01-27T21:50:43.057Z,1.30
2023-01-27T21:53:13.573Z,1.30
2023-01-27T21:55:43.627Z,1.30
2023-01-27T21:58:13.555Z,1.30
2023-01-27T22:00:43.359Z,1.30
2023-01-27T22:03:14.468Z,1.30
2023-01-27T22:05:44.017Z,1.40
2023-01-27T22:08:14.478Z,1.40
2023-01-27T22:10:43.891Z,1.40
2023-01-27T22:13:13.292Z,1.30
2023-01-27T22:15:42.761Z,1.30
2023-01-27T22:18:13.718Z,1.30
2023-01-27T22:20:42.978Z,1.30
2023-01-27T22:23:12.312Z,1.40
2023-01-27T22:25:41.662Z,1.30
2023-01-27T22:28:10.913Z,1.30
2023-01-27T22:30:40.459Z,1.40
2023-01-27T22:33:10.244Z,1.30
2023-01-27T22:35:41.284Z,1.40
2023-01-27T22:38:10.751Z,1.30
2023-01-27T22:40:40.301Z,1.40
2023-01-27T22:43:10.910Z,1.40
2023-01-27T22:45:40.736Z,1.40
2023-01-27T22:48:10.130Z,1.30
2023-01-27T22:50:42.173Z,1.40
2023-01-27T22:53:11.774Z,1.40
2023-01-27T22:55:41.103Z,1.20
2023-01-27T22:58:10.588Z,1.20
2023-01-27T23:00:40.459Z,1.20
2023-01-27T23:03:09.839Z,1.10
2023-01-27T23:05:40.613Z,1.10
2023-01-27T23:08:10.243Z,1.10
2023-01-27T23:10:40.028Z,1.00
2023-01-27T23:13:09.398Z,1.00
2023-01-27T23:15:38.988Z,1.00
2023-01-27T23:18:11.616Z,1.00
2023-01-27T23:20:43.995Z,1.00
2023-01-27T23:23:15.062Z,1.00
2023-01-27T23:25:45.446Z,1.00
2023-01-27T23:28:16.049Z,1.00
2023-01-27T23:30:46.413Z,1.00
2023-01-27T23:33:17.489Z,1.00
2023-01-27T23:35:48.765Z,1.00
2023-01-27T23:38:31.804Z,1.00
2023-01-27T23:41:05.595Z,1.00
2023-01-27T23:43:35.127Z,1.10
2023-01-27T23:46:04.431Z,1.10
2023-01-27T23:48:33.803Z,1.10
2023-01-27T23:51:09.982Z,1.10
2023-01-27T23:53:39.293Z,1.10
2023-01-27T23:56:10.671Z,1.20
2023-01-27T23:58:39.949Z,1.10
